createdAt,value
2018-05-03T00:02:04.286Z,2.63
2018-05-03T00:04:35.536Z,7.00
2018-05-03T00:07:07.228Z,3.73
2018-05-03T00:09:38.212Z,2.53
2018-05-03T00:12:08.284Z,3.83
2018-05-03T00:14:38.845Z,2.87
2018-05-03T00:17:08.931Z,2.80
2018-05-03T00:19:38.572Z,3.13
2018-05-03T00:22:08.691Z,4.17
2018-05-03T00:24:38.808Z,2.40
2018-05-03T00:27:08.528Z,3.70
2018-05-03T00:29:38.599Z,3.00
2018-05-03T00:32:08.648Z,3.00
2018-05-03T00:34:38.675Z,5.97
2018-05-03T00:37:08.795Z,3.47
2018-05-03T00:39:39.528Z,3.03
2018-05-03T00:42:09.221Z,3.20
2018-05-03T00:44:39.523Z,5.17
2018-05-03T00:47:09.564Z,4.07
2018-05-03T00:49:39.318Z,3.23
2018-05-03T00:52:10.871Z,4.20
2018-05-03T00:54:49.992Z,3.70
2018-05-03T00:57:20.079Z,3.90
2018-05-03T00:59:49.785Z,4.07
2018-05-03T01:02:20.491Z,5.57
2018-05-03T01:04:49.817Z,6.37
2018-05-03T01:07:20.362Z,4.53
2018-05-03T01:09:51.579Z,5.43
2018-05-03T01:12:21.908Z,5.07
2018-05-03T01:14:54.368Z,4.93
2018-05-03T01:17:24.104Z,4.73
2018-05-03T01:19:55.094Z,4.20
2018-05-03T01:22:24.768Z,5.13
2018-05-03T01:24:56.000Z,4.53
2018-05-03T01:27:26.924Z,4.50
2018-05-03T01:29:59.263Z,5.17
2018-05-03T01:32:29.325Z,5.13
2018-05-03T01:35:08.705Z,5.20
2018-05-03T01:37:39.083Z,4.93
2018-05-03T01:40:10.003Z,6.73
2018-05-03T01:42:39.643Z,6.87
2018-05-03T01:45:09.344Z,5.33
2018-05-03T01:47:40.150Z,5.90
2018-05-03T01:50:10.333Z,7.07
2018-05-03T01:52:40.419Z,6.40
2018-05-03T01:55:10.656Z,5.50
2018-05-03T01:57:40.899Z,7.67
2018-05-03T02:00:11.919Z,9.30
2018-05-03T02:02:42.076Z,8.47
2018-05-03T02:05:12.152Z,6.30
2018-05-03T02:07:43.395Z,5.33
2018-05-03T02:10:14.035Z,7.03
2018-05-03T02:12:44.780Z,8.07
2018-05-03T02:15:15.140Z,7.23
2018-05-03T02:17:45.406Z,7.37
2018-05-03T02:20:16.155Z,7.23
2018-05-03T02:22:47.506Z,5.70
2018-05-03T02:25:18.859Z,7.70
2018-05-03T02:27:48.969Z,7.07
2018-05-03T02:30:19.586Z,6.30
2018-05-03T02:32:50.119Z,6.20
2018-05-03T02:35:20.160Z,6.87
2018-05-03T02:37:51.180Z,6.20
2018-05-03T02:40:22.613Z,6.53
2018-05-03T02:42:53.219Z,10.00
2018-05-03T02:45:23.557Z,7.33
2018-05-03T02:47:54.236Z,6.93
2018-05-03T02:50:25.352Z,7.27
2018-05-03T02:52:55.497Z,6.57
2018-05-03T02:55:25.819Z,7.50
2018-05-03T03:00:09.177Z,7.13
2018-05-03T03:03:56.232Z,7.03
2018-05-03T03:07:41.163Z,8.27
2018-05-03T03:10:18.556Z,7.37
2018-05-03T03:14:58.420Z,6.57
2018-05-03T03:19:47.784Z,7.57
2018-05-03T03:22:32.883Z,8.77
2018-05-03T03:25:12.080Z,7.33
2018-05-03T03:27:58.747Z,7.03
2018-05-03T03:31:44.277Z,7.77
2018-05-03T03:34:17.445Z,9.53
2018-05-03T03:37:03.533Z,6.30
2018-05-03T03:39:44.671Z,7.20
2018-05-03T03:42:23.596Z,8.97
2018-05-03T03:44:53.599Z,7.00
2018-05-03T03:47:23.632Z,6.77
2018-05-03T03:49:53.679Z,8.17
2018-05-03T03:52:23.774Z,6.90
2018-05-03T03:54:53.836Z,7.43
2018-05-03T03:57:23.899Z,7.17
2018-05-03T03:59:54.526Z,6.50
2018-05-03T04:02:25.776Z,6.93
2018-05-03T04:04:55.423Z,6.83
2018-05-03T04:07:25.503Z,6.47
2018-05-03T04:09:57.780Z,9.50
2018-05-03T04:12:28.839Z,7.83
2018-05-03T04:14:58.952Z,7.80
2018-05-03T04:17:39.927Z,13.10
2018-05-03T04:20:20.528Z,9.00
2018-05-03T04:23:00.720Z,6.37
2018-05-03T04:25:41.904Z,7.63
2018-05-03T04:28:12.601Z,7.13
2018-05-03T04:30:42.672Z,6.70
2018-05-03T04:33:13.662Z,7.97
2018-05-03T04:35:43.791Z,7.13
2018-05-03T04:38:15.488Z,6.43
2018-05-03T04:40:46.432Z,6.47
2018-05-03T04:43:17.216Z,6.47
2018-05-03T04:45:47.537Z,7.80
2018-05-03T04:48:19.043Z,6.83
2018-05-03T04:50:51.222Z,6.20
2018-05-03T04:53:21.581Z,7.70
2018-05-03T04:55:51.366Z,5.83
2018-05-03T04:58:21.100Z,6.20
2018-05-03T05:00:51.282Z,5.33
2018-05-03T05:03:21.397Z,6.27
2018-05-03T05:05:51.464Z,6.23
2018-05-03T05:08:21.659Z,10.47
2018-05-03T05:10:52.264Z,8.10
2018-05-03T05:13:22.582Z,6.73
2018-05-03T05:15:52.743Z,5.30
2018-05-03T05:18:22.786Z,9.83
2018-05-03T05:20:52.831Z,6.37
2018-05-03T05:23:23.284Z,9.93
2018-05-03T05:25:53.374Z,7.53
2018-05-03T05:28:23.712Z,11.40
2018-05-03T05:30:53.857Z,8.07
2018-05-03T05:33:24.341Z,8.23
2018-05-03T05:35:54.523Z,8.87
2018-05-03T05:38:26.964Z,9.73
2018-05-03T05:40:57.192Z,9.93
2018-05-03T05:43:27.505Z,8.63
2018-05-03T05:45:57.872Z,10.27
2018-05-03T05:48:28.483Z,6.60
2018-05-03T05:50:58.855Z,8.17
2018-05-03T05:53:29.657Z,7.63
2018-05-03T05:56:00.041Z,6.43
2018-05-03T05:58:30.374Z,7.03
2018-05-03T06:01:00.620Z,7.53
2018-05-03T06:03:30.921Z,8.23
2018-05-03T06:06:00.919Z,7.27
2018-05-03T06:08:32.088Z,6.93
2018-05-03T06:11:02.210Z,7.87
2018-05-03T06:13:32.288Z,10.17
2018-05-03T06:16:02.355Z,9.17
2018-05-03T06:18:32.449Z,10.13
2018-05-03T06:21:02.751Z,9.40
2018-05-03T06:23:32.843Z,10.17
2018-05-03T06:26:02.942Z,10.97
2018-05-03T06:28:33.086Z,11.70
2018-05-03T06:31:03.182Z,12.20
2018-05-03T06:33:33.280Z,16.27
2018-05-03T06:36:04.131Z,12.53
2018-05-03T06:38:35.447Z,13.30
2018-05-03T06:41:05.808Z,14.63
2018-05-03T06:43:36.513Z,12.13
2018-05-03T06:46:06.639Z,13.20
2018-05-03T06:48:38.177Z,12.60
2018-05-03T06:51:09.371Z,12.27
2018-05-03T06:53:41.005Z,11.07
2018-05-03T06:56:15.093Z,13.77
2018-05-03T06:58:45.105Z,14.37
2018-05-03T07:01:15.878Z,14.77
2018-05-03T07:03:46.179Z,14.77
2018-05-03T07:06:16.959Z,12.57
2018-05-03T07:08:48.365Z,12.13
2018-05-03T07:11:19.332Z,11.67
2018-05-03T07:13:49.179Z,11.00
2018-05-03T07:16:20.000Z,10.93
2018-05-03T07:18:50.055Z,8.97
2018-05-03T07:21:20.244Z,10.03
2018-05-03T07:23:50.762Z,10.97
2018-05-03T07:26:20.972Z,10.23
2018-05-03T07:28:50.656Z,11.00
2018-05-03T07:31:27.288Z,10.60
2018-05-03T07:34:00.460Z,9.47
2018-05-03T07:36:30.276Z,9.40
2018-05-03T07:39:00.401Z,10.07
2018-05-03T07:41:30.449Z,11.27
2018-05-03T07:44:01.492Z,11.17
2018-05-03T07:46:31.559Z,9.17
2018-05-03T07:49:01.945Z,8.70
2018-05-03T07:51:32.615Z,8.27
2018-05-03T07:54:03.896Z,8.40
2018-05-03T07:56:38.029Z,8.17
2018-05-03T07:59:09.592Z,8.70
2018-05-03T08:01:39.816Z,8.83
2018-05-03T08:04:10.275Z,8.50
2018-05-03T08:06:40.364Z,8.57
2018-05-03T08:09:11.404Z,8.30
2018-05-03T08:11:42.061Z,8.53
2018-05-03T08:14:12.377Z,7.50
2018-05-03T08:16:42.452Z,7.10
2018-05-03T08:19:12.534Z,8.00
2018-05-03T08:21:42.724Z,7.13
2018-05-03T08:24:12.861Z,7.33
2018-05-03T08:26:42.927Z,7.07
2018-05-03T08:29:13.091Z,7.87
2018-05-03T08:31:43.228Z,6.90
2018-05-03T08:34:14.396Z,8.57
2018-05-03T08:36:44.487Z,5.20
2018-05-03T08:39:14.939Z,6.17
2018-05-03T08:41:45.096Z,6.13
2018-05-03T08:44:15.536Z,5.47
2018-05-03T08:46:45.906Z,5.10
2018-05-03T08:49:20.352Z,6.23
2018-05-03T08:51:50.384Z,4.00
2018-05-03T08:54:20.496Z,4.83
2018-05-03T08:56:50.588Z,3.90
2018-05-03T08:59:20.706Z,4.47
2018-05-03T09:01:51.366Z,3.43
2018-05-03T09:04:24.014Z,3.20
2018-05-03T09:06:54.463Z,4.40
2018-05-03T09:12:06.947Z,3.67
2018-05-03T09:14:37.972Z,3.43
2018-05-03T09:17:08.132Z,6.17
2018-05-03T09:19:38.788Z,3.57
2018-05-03T09:22:09.011Z,3.17
2018-05-03T09:24:44.196Z,3.83
2018-05-03T09:27:16.957Z,4.00
2018-05-03T09:29:47.432Z,2.83
2018-05-03T09:32:18.071Z,2.60
2018-05-03T09:34:49.213Z,3.17
2018-05-03T09:37:18.924Z,4.40
2018-05-03T09:39:49.060Z,2.83
2018-05-03T09:42:21.235Z,3.37
2018-05-03T09:44:52.105Z,3.73
2018-05-03T09:47:22.196Z,5.73
2018-05-03T09:49:56.083Z,2.70
2018-05-03T09:52:26.616Z,2.73
2018-05-03T09:54:57.043Z,2.77
2018-05-03T09:57:28.158Z,3.27
2018-05-03T09:59:59.412Z,3.53
2018-05-03T10:02:29.401Z,3.33
2018-05-03T10:04:59.816Z,3.23
2018-05-03T10:07:29.944Z,3.17
2018-05-03T10:10:01.301Z,2.10
2018-05-03T10:12:31.363Z,3.43
2018-05-03T10:15:43.542Z,2.83
2018-05-03T10:19:16.528Z,4.27
2018-05-03T10:21:55.895Z,4.37
2018-05-03T10:24:43.239Z,2.70
2018-05-03T10:27:13.631Z,2.77
2018-05-03T10:29:44.600Z,2.30
2018-05-03T10:32:15.603Z,3.67
2018-05-03T10:34:46.134Z,3.23
2018-05-03T10:37:18.044Z,2.70
2018-05-03T10:39:48.595Z,3.60
2018-05-03T10:42:19.431Z,4.53
2018-05-03T10:44:49.662Z,3.10
2018-05-03T10:47:19.817Z,3.47
2018-05-03T10:49:49.708Z,3.20
2018-05-03T10:52:19.859Z,2.93
2018-05-03T10:54:57.375Z,3.33
2018-05-03T10:57:27.933Z,3.47
2018-05-03T10:59:58.065Z,2.57
2018-05-03T11:02:28.582Z,6.33
2018-05-03T11:05:01.387Z,3.53
2018-05-03T11:07:31.740Z,3.60
2018-05-03T11:10:02.038Z,3.67
2018-05-03T11:12:32.388Z,3.57
2018-05-03T11:15:04.616Z,6.53
2018-05-03T11:17:34.648Z,15.97
2018-05-03T11:20:04.756Z,4.23
2018-05-03T11:22:34.811Z,6.27
2018-05-03T11:28:11.032Z,2.53
2018-05-03T11:30:47.185Z,19.20
2018-05-03T11:33:17.491Z,10.67
2018-05-03T11:36:00.476Z,3.03
2018-05-03T11:38:36.796Z,2.33
2018-05-03T11:41:06.939Z,3.13
2018-05-03T11:43:37.134Z,2.50
2018-05-03T11:46:08.122Z,3.53
2018-05-03T11:48:37.931Z,2.93
2018-05-03T11:51:15.325Z,3.67
2018-05-03T11:53:45.397Z,4.40
2018-05-03T11:56:15.520Z,6.60
2018-05-03T11:58:47.596Z,3.00
2018-05-03T12:01:30.184Z,2.60
2018-05-03T12:04:00.627Z,2.80
2018-05-03T12:06:30.331Z,2.63
2018-05-03T12:09:01.473Z,3.20
2018-05-03T12:11:31.480Z,2.60
2018-05-03T12:14:02.376Z,3.60
2018-05-03T12:16:34.564Z,2.77
2018-05-03T12:19:19.887Z,2.60
2018-05-03T12:22:10.367Z,2.57
2018-05-03T12:24:41.004Z,2.60
2018-05-03T12:27:12.092Z,3.27
2018-05-03T12:29:43.206Z,3.67
2018-05-03T12:32:13.390Z,2.93
2018-05-03T12:34:44.303Z,4.27
2018-05-03T12:37:14.343Z,2.83
2018-05-03T12:39:57.123Z,3.20
2018-05-03T12:42:27.225Z,3.20
2018-05-03T12:44:57.334Z,3.63
2018-05-03T12:47:27.436Z,3.27
2018-05-03T12:49:57.531Z,3.93
2018-05-03T12:52:27.904Z,4.17
2018-05-03T12:55:01.915Z,6.27
2018-05-03T12:57:32.236Z,4.27
2018-05-03T13:00:03.104Z,4.50
2018-05-03T13:02:33.285Z,4.30
2018-05-03T13:05:09.025Z,4.10
2018-05-03T13:07:39.063Z,4.40
2018-05-03T13:10:16.601Z,4.60
2018-05-03T13:12:47.075Z,3.90
2018-05-03T13:15:17.195Z,3.90
2018-05-03T13:17:47.216Z,3.90
2018-05-03T13:20:17.386Z,4.63
2018-05-03T13:22:47.444Z,4.93
2018-05-03T13:25:17.488Z,4.20
2018-05-03T13:27:47.520Z,5.97
2018-05-03T13:30:17.641Z,4.83
2018-05-03T13:32:47.732Z,5.07
2018-05-03T13:38:22.480Z,5.10
2018-05-03T13:40:52.995Z,4.43
2018-05-03T13:43:23.123Z,4.10
2018-05-03T13:45:57.505Z,4.67
2018-05-03T13:48:27.572Z,4.20
2018-05-03T13:50:57.587Z,7.03
2018-05-03T13:53:28.524Z,5.43
2018-05-03T13:55:58.755Z,6.70
2018-05-03T13:58:28.926Z,6.47
2018-05-03T14:00:59.229Z,5.13
2018-05-03T14:03:29.380Z,8.10
2018-05-03T14:05:59.556Z,5.60
2018-05-03T14:08:29.710Z,5.10
2018-05-03T14:13:54.706Z,5.33
2018-05-03T14:16:24.816Z,5.43
2018-05-03T14:18:54.979Z,4.27
2018-05-03T14:21:25.364Z,4.30
2018-05-03T14:24:00.021Z,3.80
2018-05-03T14:26:30.066Z,4.60
2018-05-03T14:28:59.812Z,6.57
2018-05-03T14:31:29.856Z,4.10
2018-05-03T14:34:00.863Z,5.63
2018-05-03T14:36:37.858Z,5.10
2018-05-03T14:39:14.619Z,4.97
2018-05-03T14:41:44.742Z,3.37
2018-05-03T14:44:18.599Z,3.80
2018-05-03T14:46:48.676Z,4.40
2018-05-03T14:49:18.786Z,3.67
2018-05-03T14:51:49.884Z,3.07
2018-05-03T14:54:24.680Z,5.20
2018-05-03T14:56:57.235Z,6.03
2018-05-03T14:59:27.348Z,7.33
2018-05-03T15:02:02.748Z,4.53
2018-05-03T15:04:32.801Z,5.00
2018-05-03T15:07:02.877Z,5.23
2018-05-03T15:09:32.965Z,3.37
2018-05-03T15:12:08.187Z,3.93
2018-05-03T15:15:41.027Z,3.50
2018-05-03T15:18:10.776Z,2.67
2018-05-03T15:20:40.969Z,6.70
2018-05-03T15:23:11.654Z,3.70
2018-05-03T15:25:41.788Z,4.00
2018-05-03T15:28:11.891Z,7.37
2018-05-03T15:33:47.866Z,3.20
2018-05-03T15:36:17.888Z,5.73
2018-05-03T15:38:48.010Z,4.47
2018-05-03T15:41:18.055Z,3.00
2018-05-03T15:43:48.091Z,3.93
2018-05-03T15:46:18.163Z,2.50
2018-05-03T15:48:57.703Z,4.03
2018-05-03T15:51:36.107Z,6.07
2018-05-03T15:54:07.218Z,6.43
2018-05-03T15:56:38.303Z,2.40
2018-05-03T15:59:10.356Z,4.40
2018-05-03T16:02:02.957Z,7.57
2018-05-03T16:04:35.074Z,3.20
2018-05-03T16:07:06.932Z,3.27
2018-05-03T16:09:38.114Z,5.77
2018-05-03T16:12:08.517Z,6.40
2018-05-03T16:14:38.691Z,3.97
2018-05-03T16:17:11.268Z,5.27
2018-05-03T16:19:41.948Z,5.53
2018-05-03T16:22:12.288Z,3.30
2018-05-03T16:24:42.651Z,9.07
2018-05-03T16:27:12.984Z,3.63
2018-05-03T16:29:43.428Z,4.03
2018-05-03T16:32:13.576Z,4.03
2018-05-03T16:34:44.716Z,2.90
2018-05-03T16:37:14.028Z,3.90
2018-05-03T16:39:44.147Z,2.80
2018-05-03T16:42:14.352Z,3.10
2018-05-03T16:44:44.476Z,3.83
2018-05-03T16:47:14.648Z,2.77
2018-05-03T16:49:56.612Z,3.33
2018-05-03T16:52:30.600Z,2.63
2018-05-03T16:55:01.951Z,9.77
2018-05-03T16:57:32.486Z,14.33
2018-05-03T17:00:11.407Z,2.93
2018-05-03T17:02:41.533Z,3.63
2018-05-03T17:05:18.520Z,4.10
2018-05-03T17:07:49.564Z,4.63
2018-05-03T17:10:19.348Z,5.03
2018-05-03T17:12:49.008Z,2.10
2018-05-03T17:15:19.132Z,3.80
2018-05-03T17:17:49.971Z,3.17
2018-05-03T17:20:22.328Z,5.27
2018-05-03T17:22:52.404Z,3.00
2018-05-03T17:25:22.557Z,3.07
2018-05-03T17:27:54.380Z,4.07
2018-05-03T17:30:24.752Z,5.73
2018-05-03T17:32:54.551Z,6.57
2018-05-03T17:35:24.596Z,8.40
2018-05-03T17:37:54.806Z,5.40
2018-05-03T17:40:24.985Z,3.20
2018-05-03T17:42:55.164Z,4.03
2018-05-03T17:45:25.571Z,3.30
2018-05-03T17:47:55.735Z,8.00
2018-05-03T17:50:25.979Z,3.97
2018-05-03T17:52:57.137Z,8.00
2018-05-03T17:55:27.564Z,4.00
2018-05-03T17:57:57.693Z,7.43
2018-05-03T18:00:28.812Z,3.03
2018-05-03T18:02:59.892Z,5.37
2018-05-03T18:05:30.211Z,7.43
2018-05-03T18:08:00.873Z,3.50
2018-05-03T18:10:31.320Z,3.20
2018-05-03T18:13:01.476Z,5.17
2018-05-03T18:15:32.741Z,7.60
2018-05-03T18:18:09.816Z,5.10
2018-05-03T18:20:39.940Z,3.57
2018-05-03T18:23:21.732Z,4.07
2018-05-03T18:25:52.064Z,3.50
2018-05-03T18:28:27.067Z,5.60
2018-05-03T18:30:57.428Z,5.67
2018-05-03T18:33:27.546Z,4.97
2018-05-03T18:35:57.957Z,6.20
2018-05-03T18:38:28.478Z,2.43
2018-05-03T18:40:58.808Z,4.77
2018-05-03T18:43:29.267Z,2.50
2018-05-03T18:45:59.380Z,3.80
2018-05-03T18:48:29.469Z,5.07
2018-05-03T18:50:59.943Z,4.97
2018-05-03T18:53:33.919Z,5.80
2018-05-03T18:56:04.407Z,2.73
2018-05-03T18:58:34.475Z,4.63
2018-05-03T19:01:04.633Z,3.80
2018-05-03T19:03:34.715Z,4.27
2018-05-03T19:06:04.888Z,3.33
2018-05-03T19:08:34.593Z,2.80
2018-05-03T19:11:23.024Z,3.13
2018-05-03T19:13:53.117Z,3.63
2018-05-03T19:16:23.428Z,4.70
2018-05-03T19:18:53.560Z,5.33
2018-05-03T19:21:23.780Z,4.60
2018-05-03T19:23:54.162Z,3.50
2018-05-03T19:26:24.682Z,3.90
2018-05-03T19:28:54.768Z,4.03
2018-05-03T19:31:27.384Z,4.30
2018-05-03T19:33:57.428Z,4.50
2018-05-03T19:36:27.501Z,4.63
2018-05-03T19:38:57.718Z,4.60
2018-05-03T19:41:27.815Z,2.60
2018-05-03T19:43:57.862Z,4.00
2018-05-03T19:46:28.147Z,4.27
2018-05-03T19:48:58.292Z,5.50
2018-05-03T19:51:28.391Z,6.60
2018-05-03T19:53:58.594Z,2.73
2018-05-03T19:56:28.668Z,2.73
2018-05-03T19:58:58.792Z,3.57
2018-05-03T20:01:28.868Z,3.47
2018-05-03T20:03:58.989Z,4.03
2018-05-03T20:06:29.218Z,4.30
2018-05-03T20:08:59.355Z,3.97
2018-05-03T20:11:29.436Z,4.90
2018-05-03T20:13:59.576Z,4.23
2018-05-03T20:16:34.329Z,4.60
2018-05-03T20:19:04.464Z,6.07
2018-05-03T20:21:34.740Z,3.70
2018-05-03T20:24:04.836Z,3.70
2018-05-03T20:26:34.907Z,3.57
2018-05-03T20:29:05.008Z,2.47
2018-05-03T20:31:35.146Z,4.67
2018-05-03T20:34:05.176Z,4.43
2018-05-03T20:36:35.304Z,5.17
2018-05-03T20:39:06.119Z,4.60
2018-05-03T20:41:36.343Z,5.47
2018-05-03T20:44:06.452Z,3.43
2018-05-03T20:46:36.596Z,5.03
2018-05-03T20:49:07.874Z,6.00
2018-05-03T20:51:37.963Z,3.53
2018-05-03T20:54:08.675Z,4.53
2018-05-03T20:56:38.823Z,3.73
2018-05-03T20:59:08.915Z,4.80
2018-05-03T21:01:39.035Z,3.87
2018-05-03T21:04:11.308Z,4.13
2018-05-03T21:06:41.527Z,4.17
2018-05-03T21:09:13.057Z,4.23
2018-05-03T21:11:44.439Z,4.60
2018-05-03T21:14:14.532Z,6.30
2018-05-03T21:16:45.269Z,4.40
2018-05-03T21:19:16.543Z,4.63
2018-05-03T21:21:46.647Z,4.07
2018-05-03T21:24:16.357Z,4.43
2018-05-03T21:26:48.319Z,3.40
2018-05-03T21:29:19.155Z,7.37
2018-05-03T21:31:50.017Z,4.13
2018-05-03T21:34:20.220Z,4.93
2018-05-03T21:36:50.795Z,4.73
2018-05-03T21:39:20.864Z,3.93
2018-05-03T21:41:53.245Z,4.13
2018-05-03T21:44:23.877Z,6.13
2018-05-03T21:46:55.582Z,5.43
2018-05-03T21:49:25.648Z,5.83
2018-05-03T21:51:57.311Z,6.13
2018-05-03T21:54:27.532Z,5.00
2018-05-03T21:56:57.261Z,3.13
2018-05-03T21:59:28.587Z,7.10
2018-05-03T22:02:00.024Z,5.57
2018-05-03T22:04:30.167Z,5.50
2018-05-03T22:07:00.900Z,5.03
2018-05-03T22:09:31.623Z,6.20
2018-05-03T22:12:02.925Z,5.33
2018-05-03T22:14:33.403Z,4.93
2018-05-03T22:17:04.144Z,4.67
2018-05-03T22:19:33.844Z,4.10
2018-05-03T22:22:04.232Z,6.20
2018-05-03T22:24:35.730Z,5.30
2018-05-03T22:27:06.664Z,9.00
2018-05-03T22:29:36.404Z,8.40
2018-05-03T22:32:07.568Z,5.23
2018-05-03T22:34:37.291Z,5.03
2018-05-03T22:37:07.355Z,6.27
2018-05-03T22:39:38.391Z,4.87
2018-05-03T22:42:08.667Z,6.97
2018-05-03T22:44:38.739Z,3.90
2018-05-03T22:47:09.472Z,5.83
2018-05-03T22:49:40.415Z,9.13
2018-05-03T22:52:11.809Z,8.03
2018-05-03T22:54:41.879Z,4.87
2018-05-03T22:57:13.166Z,3.20
2018-05-03T22:59:43.413Z,6.03
2018-05-03T23:02:13.732Z,3.43
2018-05-03T23:04:43.792Z,5.60
2018-05-03T23:07:14.627Z,7.73
2018-05-03T23:09:47.107Z,6.73
2018-05-03T23:12:18.295Z,4.30
2018-05-03T23:14:48.371Z,4.07
2018-05-03T23:17:18.823Z,5.57
2018-05-03T23:19:49.683Z,6.80
2018-05-03T23:22:19.764Z,3.83
2018-05-03T23:24:50.296Z,5.13
2018-05-03T23:27:21.755Z,6.20
2018-05-03T23:29:52.179Z,4.93
2018-05-03T23:32:23.563Z,5.30
2018-05-03T23:34:53.768Z,6.47
2018-05-03T23:37:24.621Z,5.20
2018-05-03T23:39:54.330Z,5.63
2018-05-03T23:42:24.092Z,4.93
2018-05-03T23:44:53.797Z,4.53
2018-05-03T23:47:23.912Z,8.13
2018-05-03T23:49:53.940Z,5.97
2018-05-03T23:52:24.684Z,6.10
2018-05-03T23:54:54.791Z,4.87
2018-05-03T23:57:26.980Z,7.30
2018-05-03T23:59:57.376Z,4.17
